createdAt,value
2022-11-18T00:08:02.784Z,27.00
2022-11-18T00:18:07.988Z,22.20
2022-11-18T00:28:11.653Z,23.40
2022-11-18T00:38:15.316Z,24.50
2022-11-18T00:48:22.375Z,20.20
2022-11-18T00:58:26.238Z,24.30
2022-11-18T01:08:29.821Z,19.40
2022-11-18T01:18:33.777Z,24.90
2022-11-18T01:28:38.156Z,27.10
2022-11-18T01:38:41.719Z,21.80
2022-11-18T01:48:48.206Z,21.90
2022-11-18T01:58:58.111Z,22.20
2022-11-18T02:09:02.755Z,16.60
2022-11-18T02:19:33.411Z,16.10
2022-11-18T02:30:10.866Z,16.00
2022-11-18T02:40:20.506Z,17.20
2022-11-18T02:50:27.755Z,16.10
2022-11-18T03:00:32.710Z,13.60
2022-11-18T03:10:59.076Z,12.60
2022-11-18T03:21:09.096Z,11.90
2022-11-18T03:31:21.248Z,10.00
2022-11-18T03:41:26.699Z,10.60
2022-11-18T03:51:37.835Z,11.80
2022-11-18T04:01:49.038Z,12.40
2022-11-18T04:12:06.002Z,12.60
2022-11-18T04:22:10.583Z,9.00
2022-11-18T04:32:14.262Z,6.90
2022-11-18T04:42:17.933Z,6.10
2022-11-18T04:52:21.573Z,10.10
2022-11-18T05:02:25.360Z,6.50
2022-11-18T05:12:48.145Z,8.30
2022-11-18T05:22:51.914Z,6.20
2022-11-18T05:32:55.579Z,6.70
2022-11-18T05:43:11.527Z,7.30
2022-11-18T05:53:16.422Z,8.00
2022-11-18T06:03:30.561Z,6.80
2022-11-18T06:13:50.870Z,6.40
2022-11-18T06:23:55.591Z,7.70
2022-11-18T06:33:59.416Z,8.80
2022-11-18T06:44:04.073Z,10.90
2022-11-18T06:54:10.878Z,9.80
2022-11-18T07:04:15.439Z,9.10
2022-11-18T07:14:19.225Z,12.30
2022-11-18T07:24:22.969Z,12.10
2022-11-18T07:34:26.724Z,13.30
2022-11-18T07:44:30.708Z,12.00
2022-11-18T07:54:35.313Z,12.30
2022-11-18T08:04:40.153Z,13.30
2022-11-18T08:14:43.945Z,13.40
2022-11-18T08:24:48.217Z,16.70
2022-11-18T08:34:52.753Z,13.10
2022-11-18T08:44:56.574Z,13.10
2022-11-18T08:55:01.064Z,11.90
2022-11-18T09:05:05.343Z,11.20
2022-11-18T09:15:14.937Z,11.50
2022-11-18T09:25:19.106Z,10.10
2022-11-18T09:35:23.309Z,11.20
2022-11-18T09:45:38.822Z,13.70
2022-11-18T09:55:43.403Z,14.20
2022-11-18T10:06:07.732Z,24.80
2022-11-18T10:16:26.758Z,13.80
2022-11-18T10:26:43.519Z,12.20
2022-11-18T10:37:28.173Z,12.30
2022-11-18T10:47:43.157Z,8.90
2022-11-18T10:57:48.686Z,7.60
2022-11-18T11:08:35.770Z,8.50
2022-11-18T11:29:18.021Z,12.10
2022-11-18T11:39:34.190Z,11.50
2022-11-18T11:49:54.480Z,10.50
2022-11-18T12:00:12.553Z,10.80
2022-11-18T12:10:16.480Z,17.00
2022-11-18T12:20:42.597Z,13.30
2022-11-18T12:30:46.446Z,14.10
2022-11-18T12:40:53.057Z,19.60
2022-11-18T12:50:59.869Z,24.20
2022-11-18T13:01:11.210Z,15.40
2022-11-18T13:11:36.421Z,19.30
2022-11-18T13:21:59.739Z,20.60
2022-11-18T13:32:15.549Z,16.70
2022-11-18T13:42:28.085Z,15.60
2022-11-18T13:52:38.850Z,16.50
2022-11-18T14:02:46.954Z,17.70
2022-11-18T14:23:30.569Z,28.70
2022-11-18T14:33:37.167Z,27.10
2022-11-18T14:43:41.573Z,26.50
2022-11-18T14:53:45.548Z,23.00
2022-11-18T15:03:49.218Z,23.50
2022-11-18T15:13:53.080Z,26.80
2022-11-18T15:23:57.183Z,32.60
2022-11-18T15:34:06.635Z,26.80
2022-11-18T15:44:12.223Z,29.90
2022-11-18T15:54:16.187Z,32.60
2022-11-18T16:04:20.366Z,43.80
2022-11-18T16:14:25.127Z,35.00
2022-11-18T16:24:29.774Z,36.50
2022-11-18T16:34:34.501Z,32.50
2022-11-18T16:44:38.761Z,28.80
2022-11-18T16:54:45.597Z,32.70
2022-11-18T17:04:50.792Z,27.10
2022-11-18T17:14:54.782Z,29.70
2022-11-18T17:25:04.910Z,28.70
2022-11-18T17:35:10.382Z,30.30
2022-11-18T17:45:14.860Z,31.40
2022-11-18T17:55:19.058Z,27.90
2022-11-18T18:05:25.682Z,36.60
2022-11-18T18:15:30.800Z,35.20
2022-11-18T18:25:34.951Z,39.60
2022-11-18T18:35:42.171Z,35.20
2022-11-18T18:46:07.757Z,37.80
2022-11-18T18:56:12.754Z,30.90
2022-11-18T19:06:47.531Z,36.80
2022-11-18T19:16:43.515Z,35.30
2022-11-18T19:26:49.464Z,24.40
2022-11-18T19:36:57.188Z,34.80
2022-11-18T19:47:02.608Z,35.70
2022-11-18T19:57:11.243Z,31.50
2022-11-18T20:07:17.247Z,32.30
2022-11-18T20:17:25.126Z,27.90
2022-11-18T20:27:29.937Z,38.00
2022-11-18T20:37:35.826Z,33.50
2022-11-18T20:47:47.297Z,26.80
2022-11-18T20:57:53.115Z,38.20
2022-11-18T21:07:58.003Z,34.10
2022-11-18T21:18:02.884Z,35.60
2022-11-18T21:28:07.506Z,33.60
2022-11-18T21:38:12.405Z,36.20
2022-11-18T21:48:16.363Z,28.90
2022-11-18T21:58:20.451Z,39.40
2022-11-18T22:08:24.309Z,28.60
2022-11-18T22:18:36.872Z,28.00
2022-11-18T22:28:40.863Z,27.40
2022-11-18T22:38:46.037Z,32.30
2022-11-18T22:48:50.227Z,32.00
2022-11-18T22:58:54.392Z,29.50
2022-11-18T23:08:58.061Z,35.50
2022-11-18T23:19:03.947Z,31.20
2022-11-18T23:29:07.781Z,33.70
2022-11-18T23:39:12.598Z,29.90
2022-11-18T23:49:16.461Z,26.20
2022-11-18T23:59:21.230Z,30.10
